Time;durP1;ratioP1;P1;durP2;ratioP2;P2;SDS_P1;SDS_P2;PMS_P1;PMS_P2;Temp;Humidity;BMP_temperature;BMP_pressure;BME280_temperature;BME280_humidity;BME280_pressure;Samples;Min_cycle;Max_cycle;Signal;HPM_P1;HPM_P2
2022/06/02 00:00:26;;;;;;;1.60;0.80;;;;;;;;;;4920890;28;20043;-80
2022/06/02 00:03:12;;;;;;;2.78;1.10;;;;;;;;;;4917641;28;20050;-80
2022/06/02 00:05:56;;;;;;;2.50;1.23;;;;;;;;;;4918889;28;20055;-80
2022/06/02 00:08:37;;;;;;;2.83;1.13;;;;;;;;;;4949777;29;20055;-80
2022/06/02 00:11:21;;;;;;;2.00;1.10;;;;;;;;;;4933088;28;20067;-80
2022/06/02 00:14:10;;;;;;;2.53;1.23;;;;;;;;;;4935759;28;20408;-80
2022/06/02 00:16:51;;;;;;;3.03;1.38;;;;;;;;;;4936684;28;20413;-80
2022/06/02 00:19:32;;;;;;;2.03;0.90;;;;;;;;;;4952201;28;20045;-80
2022/06/02 00:22:04;;;;;;;2.03;0.98;;;;;;;;;;4920329;28;20031;-80
2022/06/02 00:24:53;;;;;;;2.30;1.05;;;;;;;;;;4936691;28;20043;-80
2022/06/02 00:27:36;;;;;;;2.15;1.00;;;;;;;;;;4948149;28;20176;-80
2022/06/02 00:30:18;;;;;;;2.38;1.27;;;;;;;;;;4936522;28;20073;-80
2022/06/02 00:32:47;;;;;;;2.10;1.02;;;;;;;;;;4936543;29;20058;-80
2022/06/02 00:35:15;;;;;;;2.17;1.10;;;;;;;;;;4920072;28;20039;-81
2022/06/02 00:38:05;;;;;;;1.92;1.08;;;;;;;;;;4952561;28;20046;-80
2022/06/02 00:40:32;;;;;;;1.70;0.90;;;;;;;;;;4937560;29;20043;-80
2022/06/02 00:43:05;;;;;;;1.65;1.17;;;;;;;;;;4920416;28;20043;-80
2022/06/02 00:45:30;;;;;;;3.17;1.65;;;;;;;;;;4920523;28;20047;-80
2022/06/02 00:47:59;;;;;;;1.90;0.90;;;;;;;;;;4988048;28;20062;-80
2022/06/02 00:51:03;;;;;;;1.90;0.93;;;;;;;;;;4933751;28;20118;-80
2022/06/02 00:57:30;;;;;;;1.40;0.90;;;;;;;;;;5006028;28;20042;-80
2022/06/02 00:59:59;;;;;;;2.17;0.90;;;;;;;;;;4947156;28;20055;-80
2022/06/02 01:02:25;;;;;;;1.98;0.77;;;;;;;;;;4940288;28;20047;-80
2022/06/02 01:04:51;;;;;;;1.88;0.80;;;;;;;;;;5002486;28;20401;-80
2022/06/02 01:07:35;;;;;;;2.00;0.88;;;;;;;;;;4935661;29;20031;-80
2022/06/02 01:10:12;;;;;;;2.25;0.80;;;;;;;;;;4951718;28;20039;-80
2022/06/02 01:12:52;;;;;;;2.03;0.88;;;;;;;;;;4951527;28;20039;-80
2022/06/02 01:15:39;;;;;;;2.10;0.73;;;;;;;;;;4951561;29;20027;-80
2022/06/02 01:18:13;;;;;;;2.70;1.02;;;;;;;;;;4951730;29;20449;-81
2022/06/02 01:20:58;;;;;;;2.17;0.82;;;;;;;;;;5018986;28;20161;-80
2022/06/02 01:23:59;;;;;;;1.50;0.80;;;;;;;;;;4935382;28;20498;-80
2022/06/02 01:26:40;;;;;;;1.50;0.82;;;;;;;;;;4895768;28;20423;-80
2022/06/02 01:29:38;;;;;;;1.60;0.90;;;;;;;;;;5014227;28;20047;-80
2022/06/02 01:32:07;;;;;;;1.73;1.02;;;;;;;;;;4921271;28;20181;-80
2022/06/02 01:35:22;;;;;;;2.17;1.10;;;;;;;;;;4985184;28;20532;-80
2022/06/02 01:37:57;;;;;;;2.88;0.98;;;;;;;;;;4983477;28;20081;-80
2022/06/02 01:40:40;;;;;;;1.80;0.90;;;;;;;;;;5000639;28;20046;-80
2022/06/02 01:43:09;;;;;;;1.90;1.10;;;;;;;;;;5015423;28;20035;-81
2022/06/02 01:46:09;;;;;;;2.75;1.33;;;;;;;;;;5028611;28;20050;-80
2022/06/02 01:49:19;;;;;;;1.50;0.80;;;;;;;;;;4935385;28;20047;-80
2022/06/02 01:51:47;;;;;;;1.70;0.88;;;;;;;;;;4971292;28;20619;-80
2022/06/02 01:54:32;;;;;;;2.00;0.98;;;;;;;;;;4972114;28;20489;-80
2022/06/02 01:56:57;;;;;;;1.58;0.80;;;;;;;;;;4958993;28;20139;-80
2022/06/02 01:59:44;;;;;;;2.30;1.02;;;;;;;;;;4950816;28;20114;-80
2022/06/02 02:02:18;;;;;;;2.42;1.13;;;;;;;;;;4934846;28;20040;-80
2022/06/02 02:05:05;;;;;;;2.35;0.90;;;;;;;;;;4935009;29;20514;-80
2022/06/02 02:07:37;;;;;;;1.60;0.90;;;;;;;;;;4950530;28;20051;-80
2022/06/02 02:10:29;;;;;;;2.20;1.20;;;;;;;;;;4950781;28;20497;-80
2022/06/02 02:13:03;;;;;;;2.07;0.87;;;;;;;;;;4934829;29;20043;-80
2022/06/02 02:15:35;;;;;;;1.95;0.88;;;;;;;;;;4934058;29;20118;-80
2022/06/02 02:18:19;;;;;;;2.47;1.17;;;;;;;;;;4950665;28;20031;-80
2022/06/02 02:21:12;;;;;;;2.42;0.82;;;;;;;;;;4934182;28;20036;-80
2022/06/02 02:23:51;;;;;;;;;;;;;;;;;;4919014;28;20053;-80
2022/06/02 02:26:32;;;;;;;2.40;1.30;;;;;;;;;;4977987;28;20004;-80
2022/06/02 02:29:13;;;;;;;1.88;0.80;;;;;;;;;;4998809;28;20388;-80
2022/06/02 02:32:00;;;;;;;1.70;0.93;;;;;;;;;;5014720;28;20049;-80
2022/06/02 02:34:29;;;;;;;2.47;0.85;;;;;;;;;;5014963;28;20033;-80
2022/06/02 02:37:15;;;;;;;1.40;0.85;;;;;;;;;;5032511;28;20046;-80
2022/06/02 02:39:54;;;;;;;1.88;1.08;;;;;;;;;;5030967;28;20508;-79
2022/06/02 02:42:51;;;;;;;2.45;1.00;;;;;;;;;;5015178;28;20053;-80
2022/06/02 02:45:46;;;;;;;2.13;1.20;;;;;;;;;;5010603;28;20034;-80
2022/06/02 02:48:27;;;;;;;2.30;1.05;;;;;;;;;;5017487;28;20144;-80
2022/06/02 02:51:07;;;;;;;1.98;1.05;;;;;;;;;;4949634;28;20043;-80
2022/06/02 02:53:54;;;;;;;1.67;0.85;;;;;;;;;;4934503;29;20406;-80
2022/06/02 02:56:29;;;;;;;1.23;0.70;;;;;;;;;;4917847;28;20040;-80
2022/06/02 02:59:02;;;;;;;2.70;1.00;;;;;;;;;;4918588;29;20077;-80
2022/06/02 03:02:02;;;;;;;1.85;0.93;;;;;;;;;;4914692;29;20075;-80
2022/06/02 03:04:55;;;;;;;2.75;1.10;;;;;;;;;;4994548;28;20039;-80
2022/06/02 03:07:21;;;;;;;1.45;0.88;;;;;;;;;;4946829;28;20036;-80
2022/06/02 03:10:15;;;;;;;2.42;1.00;;;;;;;;;;4931452;28;20036;-80
2022/06/02 03:13:10;;;;;;;1.70;0.80;;;;;;;;;;4928400;28;20050;-80
2022/06/02 03:15:48;;;;;;;3.17;1.13;;;;;;;;;;4979258;28;20043;-80
2022/06/02 03:18:31;;;;;;;1.55;0.98;;;;;;;;;;4930100;29;20127;-79
2022/06/02 03:21:02;;;;;;;1.48;0.73;;;;;;;;;;5013218;28;20031;-80
2022/06/02 03:24:19;;;;;;;2.22;0.82;;;;;;;;;;4996806;28;20063;-79
2022/06/02 03:27:44;;;;;;;2.45;1.23;;;;;;;;;;4958450;28;20051;-79
2022/06/02 03:30:13;;;;;;;2.55;1.00;;;;;;;;;;4932226;29;20062;-80
2022/06/02 03:32:41;;;;;;;2.13;1.13;;;;;;;;;;5013598;28;20039;-80
2022/06/02 03:35:07;;;;;;;2.05;0.95;;;;;;;;;;4980667;28;20495;-79
2022/06/02 03:37:51;;;;;;;2.20;1.00;;;;;;;;;;4997025;28;20039;-80
2022/06/02 03:40:36;;;;;;;2.33;1.10;;;;;;;;;;4997170;28;20038;-80
2022/06/02 03:43:28;;;;;;;2.42;1.08;;;;;;;;;;4941128;28;20097;-80
2022/06/02 03:46:04;;;;;;;1.55;0.90;;;;;;;;;;4982532;28;20039;-80
2022/06/02 03:48:43;;;;;;;2.58;1.30;;;;;;;;;;4995821;28;20044;-81
2022/06/02 03:51:28;;;;;;;1.73;1.00;;;;;;;;;;5010448;28;20051;-80
2022/06/02 03:54:03;;;;;;;1.85;1.00;;;;;;;;;;4930394;28;20102;-80
2022/06/02 03:56:50;;;;;;;1.80;1.10;;;;;;;;;;4930132;28;20472;-80
2022/06/02 03:59:35;;;;;;;1.70;1.00;;;;;;;;;;5008831;28;20040;-80
2022/06/02 04:02:02;;;;;;;1.70;0.90;;;;;;;;;;4939305;28;20039;-80
2022/06/02 04:04:49;;;;;;;2.53;0.95;;;;;;;;;;4945372;28;20593;-80
2022/06/02 04:07:26;;;;;;;2.40;1.00;;;;;;;;;;4997102;28;20047;-80
2022/06/02 04:09:59;;;;;;;2.53;1.20;;;;;;;;;;4979816;28;20637;-80
2022/06/02 04:15:24;;;;;;;3.33;1.00;;;;;;;;;;4930618;28;20055;-80
2022/06/02 04:18:05;;;;;;;2.53;1.00;;;;;;;;;;4980417;28;20035;-80
2022/06/02 04:21:03;;;;;;;2.58;1.15;;;;;;;;;;4980042;28;20035;-80
2022/06/02 04:23:48;;;;;;;2.28;1.10;;;;;;;;;;4940787;28;20081;-80
2022/06/02 04:26:47;;;;;;;1.70;0.95;;;;;;;;;;4948823;28;20038;-80
2022/06/02 04:29:27;;;;;;;3.13;0.95;;;;;;;;;;4935425;28;20051;-79
2022/06/02 04:32:36;;;;;;;2.33;0.98;;;;;;;;;;4933078;28;20043;-80
2022/06/02 04:35:10;;;;;;;1.88;1.10;;;;;;;;;;4987299;28;20465;-79
2022/06/02 04:37:35;;;;;;;2.00;0.98;;;;;;;;;;4932839;29;20031;-80
2022/06/02 04:40:25;;;;;;;2.20;1.00;;;;;;;;;;4935524;28;20092;-80
2022/06/02 04:43:03;;;;;;;1.88;0.85;;;;;;;;;;4935983;29;20058;-80
2022/06/02 04:46:15;;;;;;;1.60;0.93;;;;;;;;;;4932908;28;20078;-80
2022/06/02 04:48:59;;;;;;;1.73;0.88;;;;;;;;;;4896569;29;20082;-80
2022/06/02 04:51:28;;;;;;;2.38;1.45;;;;;;;;;;4981633;28;20032;-80
2022/06/02 04:53:59;;;;;;;3.58;1.20;;;;;;;;;;4930535;28;20044;-80
2022/06/02 04:56:30;;;;;;;4.45;1.13;;;;;;;;;;4931291;28;20052;-80
2022/06/02 04:58:58;;;;;;;2.25;1.23;;;;;;;;;;4916895;29;20059;-80
2022/06/02 05:01:27;;;;;;;3.55;1.30;;;;;;;;;;4941139;28;20050;-80
2022/06/02 05:04:01;;;;;;;3.28;0.90;;;;;;;;;;5019404;28;20059;-78
2022/06/02 05:06:33;;;;;;;7.28;1.00;;;;;;;;;;4935802;29;20050;-79
2022/06/02 05:09:22;;;;;;;3.85;1.02;;;;;;;;;;4935793;29;20039;-79
2022/06/02 05:11:59;;;;;;;2.80;1.10;;;;;;;;;;4955054;28;20054;-78
2022/06/02 05:14:27;;;;;;;7.38;1.63;;;;;;;;;;4951779;29;20078;-79
2022/06/02 05:17:37;;;;;;;6.68;1.65;;;;;;;;;;5019113;28;20040;-79
2022/06/02 05:20:13;;;;;;;5.60;1.67;;;;;;;;;;4906701;29;20090;-78
2022/06/02 05:23:09;;;;;;;10.43;1.17;;;;;;;;;;4951398;29;20050;-78
2022/06/02 05:25:46;;;;;;;9.27;1.70;;;;;;;;;;5019232;28;20043;-78
2022/06/02 05:28:15;;;;;;;10.90;1.65;;;;;;;;;;4935352;28;20547;-79
2022/06/02 05:30:49;;;;;;;4.43;1.15;;;;;;;;;;4935405;28;20036;-79
2022/06/02 05:33:33;;;;;;;6.35;1.35;;;;;;;;;;4998358;28;20063;-80
2022/06/02 05:36:26;;;;;;;7.43;1.30;;;;;;;;;;4935265;29;20035;-79
2022/06/02 05:38:55;;;;;;;4.15;1.67;;;;;;;;;;4993166;28;20047;-79
2022/06/02 05:41:32;;;;;;;4.28;1.50;;;;;;;;;;5019022;28;20034;-79
2022/06/02 05:44:30;;;;;;;7.57;1.83;;;;;;;;;;5001890;28;20042;-79
2022/06/02 05:47:15;;;;;;;6.05;1.95;;;;;;;;;;5018704;28;20027;-80
2022/06/02 05:49:49;;;;;;;7.63;1.60;;;;;;;;;;4933601;28;20189;-79
2022/06/02 05:52:37;;;;;;;5.10;1.77;;;;;;;;;;4933003;29;20062;-80
2022/06/02 05:55:13;;;;;;;6.25;1.58;;;;;;;;;;4918783;29;20035;-79
2022/06/02 05:57:51;;;;;;;5.20;1.88;;;;;;;;;;4934731;28;20064;-79
2022/06/02 06:00:54;;;;;;;6.68;1.42;;;;;;;;;;4950293;28;20047;-79
2022/06/02 06:03:33;;;;;;;4.40;1.60;;;;;;;;;;4932559;29;20069;-79
2022/06/02 06:06:29;;;;;;;5.10;1.30;;;;;;;;;;4931919;28;20387;-79
2022/06/02 06:09:11;;;;;;;10.23;6.32;;;;;;;;;;4932792;29;20036;-78
2022/06/02 06:12:02;;;;;;;13.80;8.32;;;;;;;;;;4998408;28;20098;-78
2022/06/02 06:14:36;;;;;;;15.32;6.32;;;;;;;;;;4931599;28;20032;-78
2022/06/02 06:17:11;;;;;;;16.25;8.30;;;;;;;;;;4931604;29;20048;-78
2022/06/02 06:20:27;;;;;;;17.00;7.68;;;;;;;;;;4932420;29;20039;-79
2022/06/02 06:23:20;;;;;;;14.98;7.18;;;;;;;;;;4970085;28;20098;-78
2022/06/02 06:26:13;;;;;;;13.43;6.78;;;;;;;;;;4989117;28;20075;-78
2022/06/02 06:28:53;;;;;;;9.68;5.18;;;;;;;;;;4951073;28;20062;-78
2022/06/02 06:31:49;;;;;;;8.43;4.95;;;;;;;;;;4920269;28;20031;-78
2022/06/02 06:34:52;;;;;;;7.65;3.72;;;;;;;;;;4935660;29;20043;-78
2022/06/02 06:37:46;;;;;;;5.90;3.63;;;;;;;;;;4934294;28;20039;-78
2022/06/02 06:40:31;;;;;;;5.18;3.03;;;;;;;;;;4950322;29;20050;-79
2022/06/02 06:43:08;;;;;;;5.25;2.90;;;;;;;;;;4951306;28;20039;-79
2022/06/02 06:45:45;;;;;;;5.03;1.90;;;;;;;;;;4951577;28;20047;-79
2022/06/02 06:48:49;;;;;;;5.30;2.42;;;;;;;;;;5000711;28;20044;-78
2022/06/02 06:51:34;;;;;;;3.75;1.88;;;;;;;;;;4929887;28;20081;-79
2022/06/02 06:54:16;;;;;;;5.45;2.28;;;;;;;;;;4934253;28;20062;-79
2022/06/02 06:56:45;;;;;;;;;;;;;;;;;;4934390;28;20039;-78
2022/06/02 06:59:33;;;;;;;6.28;2.28;;;;;;;;;;4918068;28;19918;-78
2022/06/02 07:02:12;;;;;;;3.00;1.38;;;;;;;;;;4949514;28;20042;-78
2022/06/02 07:05:01;;;;;;;2.70;1.35;;;;;;;;;;4949621;28;20068;-78
2022/06/02 07:07:44;;;;;;;3.92;1.38;;;;;;;;;;4934193;28;20134;-78
2022/06/02 07:10:21;;;;;;;1.88;0.70;;;;;;;;;;4950203;28;20054;-78
2022/06/02 07:13:14;;;;;;;2.67;1.05;;;;;;;;;;4984215;28;20077;-78
2022/06/02 07:15:48;;;;;;;2.63;1.25;;;;;;;;;;4951004;28;20137;-78
2022/06/02 07:18:35;;;;;;;3.40;1.00;;;;;;;;;;4934421;28;20114;-78
2022/06/02 07:21:37;;;;;;;2.15;0.85;;;;;;;;;;4950680;28;20035;-78
2022/06/02 07:24:09;;;;;;;4.32;0.90;;;;;;;;;;4949910;28;20043;-78
2022/06/02 07:26:41;;;;;;;;;;;;;;;;;;4928594;28;20064;-79
2022/06/02 07:29:43;;;;;;;2.65;0.85;;;;;;;;;;4950681;29;19926;-78
2022/06/02 07:32:36;;;;;;;2.30;1.00;;;;;;;;;;4951036;28;20039;-78
2022/06/02 07:35:20;;;;;;;2.08;1.05;;;;;;;;;;4933935;28;20040;-79
2022/06/02 07:37:46;;;;;;;3.70;1.92;;;;;;;;;;4950717;28;20023;-78
2022/06/02 07:40:20;;;;;;;8.68;6.00;;;;;;;;;;4949441;28;20485;-78
2022/06/02 07:42:51;;;;;;;6.13;4.07;;;;;;;;;;4949899;28;20075;-79
2022/06/02 07:45:30;;;;;;;7.53;4.67;;;;;;;;;;4949529;28;20035;-78
2022/06/02 07:48:05;;;;;;;7.55;3.95;;;;;;;;;;4933259;28;20768;-79
2022/06/02 07:50:32;;;;;;;4.75;2.95;;;;;;;;;;4949395;28;20043;-78
2022/06/02 07:53:14;;;;;;;7.35;3.20;;;;;;;;;;4949544;28;20115;-78
2022/06/02 07:56:01;;;;;;;3.35;2.17;;;;;;;;;;4933275;29;20043;-79
2022/06/02 07:58:35;;;;;;;4.25;2.85;;;;;;;;;;4948993;28;20036;-79
2022/06/02 08:01:16;;;;;;;5.35;2.80;;;;;;;;;;4949350;28;20034;-79
2022/06/02 08:04:00;;;;;;;6.47;3.28;;;;;;;;;;4949245;28;20043;-79
2022/06/02 08:07:06;;;;;;;4.63;2.97;;;;;;;;;;4949559;28;20093;-78
2022/06/02 08:09:47;;;;;;;3.45;1.98;;;;;;;;;;4928240;29;20098;-78
2022/06/02 08:12:24;;;;;;;4.60;3.30;;;;;;;;;;5000100;28;20035;-78
2022/06/02 08:15:21;;;;;;;6.25;3.00;;;;;;;;;;4935506;28;20039;-78
2022/06/02 08:18:04;;;;;;;5.57;2.75;;;;;;;;;;4952179;28;20122;-78
2022/06/02 08:20:54;;;;;;;3.08;1.80;;;;;;;;;;4936129;28;20470;-78
2022/06/02 08:23:25;;;;;;;3.10;2.28;;;;;;;;;;4936412;29;20069;-78
2022/06/02 08:25:57;;;;;;;3.90;2.55;;;;;;;;;;4936652;29;20035;-78
2022/06/02 08:28:36;;;;;;;4.03;2.55;;;;;;;;;;4952010;28;20047;-78
2022/06/02 08:31:02;;;;;;;6.47;3.58;;;;;;;;;;4937774;29;20045;-79
2022/06/02 08:34:17;;;;;;;6.05;2.88;;;;;;;;;;4953382;28;20039;-78
2022/06/02 08:36:58;;;;;;;7.82;3.03;;;;;;;;;;4899217;29;20120;-78
2022/06/02 08:39:32;;;;;;;4.28;2.47;;;;;;;;;;4936044;28;20050;-79
2022/06/02 08:42:25;;;;;;;8.27;4.45;;;;;;;;;;4953058;28;20468;-78
2022/06/02 08:45:28;;;;;;;5.53;3.53;;;;;;;;;;4951952;28;20039;-79
2022/06/02 08:48:23;;;;;;;6.78;3.47;;;;;;;;;;4952936;28;20828;-78
2022/06/02 08:51:02;;;;;;;4.55;2.78;;;;;;;;;;5003376;28;20067;-79
2022/06/02 08:54:13;;;;;;;7.68;2.30;;;;;;;;;;5003355;28;20050;-76
2022/06/02 08:56:51;;;;;;;6.15;2.95;;;;;;;;;;4922346;28;20055;-79
2022/06/02 08:59:38;;;;;;;6.50;3.47;;;;;;;;;;4952781;28;20071;-79
2022/06/02 09:02:15;;;;;;;6.88;3.53;;;;;;;;;;4951770;28;20043;-79
2022/06/02 09:04:50;;;;;;;5.95;3.08;;;;;;;;;;4951605;28;20165;-79
2022/06/02 09:07:34;;;;;;;5.72;2.45;;;;;;;;;;4950887;29;20043;-79
2022/06/02 09:10:37;;;;;;;4.85;3.05;;;;;;;;;;5019906;28;20043;-79
2022/06/02 09:13:33;;;;;;;3.63;2.60;;;;;;;;;;4951738;28;20039;-78
2022/06/02 09:16:19;;;;;;;4.10;2.47;;;;;;;;;;4935374;29;20502;-79
2022/06/02 09:19:04;;;;;;;7.80;3.33;;;;;;;;;;5019278;28;20047;-78
2022/06/02 09:21:54;;;;;;;3.83;2.58;;;;;;;;;;4938679;29;20032;-79
2022/06/02 09:24:33;;;;;;;5.18;1.90;;;;;;;;;;4933182;29;20518;-79
2022/06/02 09:27:36;;;;;;;2.92;1.85;;;;;;;;;;5007546;28;20043;-78
2022/06/02 09:30:28;;;;;;;3.72;1.70;;;;;;;;;;4952609;28;20039;-78
2022/06/02 09:36:21;;;;;;;4.88;1.67;;;;;;;;;;4952291;28;20046;-76
2022/06/02 09:39:06;;;;;;;3.05;1.98;;;;;;;;;;4938318;29;20031;-77
2022/06/02 09:42:08;;;;;;;3.60;2.15;;;;;;;;;;4952542;28;20071;-77
2022/06/02 09:44:41;;;;;;;3.13;1.63;;;;;;;;;;4935100;28;20035;-77
2022/06/02 09:47:25;;;;;;;3.25;1.67;;;;;;;;;;5018451;28;20092;-76
2022/06/02 09:50:10;;;;;;;3.25;1.67;;;;;;;;;;4951208;28;20047;-78
2022/06/02 09:52:35;;;;;;;4.65;2.53;;;;;;;;;;4952277;28;20038;-79
2022/06/02 09:55:16;;;;;;;5.13;1.48;;;;;;;;;;4951586;28;20061;-79
2022/06/02 09:58:17;;;;;;;3.08;2.15;;;;;;;;;;4950505;28;20043;-79
2022/06/02 10:01:02;;;;;;;4.35;2.85;;;;;;;;;;4943106;28;20066;-79
2022/06/02 10:03:34;;;;;;;3.47;1.88;;;;;;;;;;4950716;28;20067;-79
2022/06/02 10:06:08;;;;;;;2.05;1.20;;;;;;;;;;4951534;29;20405;-79
2022/06/02 10:09:05;;;;;;;3.03;1.38;;;;;;;;;;4950838;29;20040;-79
2022/06/02 10:12:54;;;;;;;5.68;2.00;;;;;;;;;;4950809;29;20043;-78
2022/06/02 10:14:52;;;;;;;4.05;1.67;;;;;;;;;;4934104;28;20032;-79
2022/06/02 10:17:27;;;;;;;2.75;1.50;;;;;;;;;;4950403;29;20061;-76
2022/06/02 10:20:18;;;;;;;2.75;1.48;;;;;;;;;;4951691;29;20104;-76
2022/06/02 10:23:02;;;;;;;4.57;1.70;;;;;;;;;;4950614;28;20387;-79
2022/06/02 10:26:09;;;;;;;2.05;1.13;;;;;;;;;;4918683;29;20035;-78
2022/06/02 10:28:53;;;;;;;5.70;1.65;;;;;;;;;;4959887;28;20054;-79
2022/06/02 10:32:07;;;;;;;2.50;1.23;;;;;;;;;;4982224;28;20189;-79
2022/06/02 10:34:47;;;;;;;1.88;1.10;;;;;;;;;;4874169;29;20119;-79
2022/06/02 10:37:28;;;;;;;2.38;0.90;;;;;;;;;;4922840;29;20410;-79
2022/06/02 10:40:08;;;;;;;3.65;1.40;;;;;;;;;;4950354;28;20047;-79
2022/06/02 10:43:25;;;;;;;4.32;1.65;;;;;;;;;;4949932;28;20042;-79
2022/06/02 10:46:11;;;;;;;5.93;3.97;;;;;;;;;;4909780;28;20043;-79
2022/06/02 10:49:09;;;;;;;7.97;3.83;;;;;;;;;;4933194;28;20044;-79
2022/06/02 10:52:12;;;;;;;14.65;6.60;;;;;;;;;;4917946;28;20035;-79
2022/06/02 10:54:58;;;;;;;9.80;3.67;;;;;;;;;;4949893;28;20050;-79
2022/06/02 10:57:48;;;;;;;5.00;2.25;;;;;;;;;;4933740;29;20054;-79
2022/06/02 11:00:30;;;;;;;8.40;1.98;;;;;;;;;;4950952;28;20043;-79
2022/06/02 11:03:13;;;;;;;2.60;1.48;;;;;;;;;;4933660;28;20392;-79
2022/06/02 11:05:55;;;;;;;6.45;2.15;;;;;;;;;;4951150;28;20047;-79
2022/06/02 11:08:45;;;;;;;4.57;1.30;;;;;;;;;;4951193;28;20118;-78
2022/06/02 11:12:05;;;;;;;5.45;1.50;;;;;;;;;;4949856;28;20050;-79
2022/06/02 11:14:33;;;;;;;3.72;1.92;;;;;;;;;;4876185;28;20040;-79
2022/06/02 11:17:25;;;;;;;5.28;1.83;;;;;;;;;;4922522;29;20059;-79
2022/06/02 11:20:30;;;;;;;5.78;1.20;;;;;;;;;;4931350;28;20118;-79
2022/06/02 11:23:15;;;;;;;2.80;1.00;;;;;;;;;;5017192;28;20035;-79
2022/06/02 11:25:40;;;;;;;5.65;1.65;;;;;;;;;;4984574;28;20046;-78
2022/06/02 11:28:49;;;;;;;5.20;1.60;;;;;;;;;;4949160;28;20039;-78
2022/06/02 11:31:29;;;;;;;3.08;1.13;;;;;;;;;;4938835;28;20728;-77
2022/06/02 11:34:00;;;;;;;5.13;1.50;;;;;;;;;;4930066;28;20218;-77
2022/06/02 11:36:37;;;;;;;4.25;0.90;;;;;;;;;;4948513;28;20089;-77
2022/06/02 11:39:38;;;;;;;4.60;1.48;;;;;;;;;;4943687;28;20529;-77
2022/06/02 11:42:15;;;;;;;7.03;1.60;;;;;;;;;;4960632;28;20149;-78
2022/06/02 11:45:10;;;;;;;6.00;1.50;;;;;;;;;;4936106;28;20121;-78
2022/06/02 11:47:53;;;;;;;4.78;1.15;;;;;;;;;;4941448;29;20043;-78
2022/06/02 11:50:43;;;;;;;6.45;1.48;;;;;;;;;;4936365;28;20039;-77
2022/06/02 11:53:23;;;;;;;2.85;1.27;;;;;;;;;;4954011;28;20031;-77
2022/06/02 11:55:54;;;;;;;4.38;2.20;;;;;;;;;;4952623;28;20445;-78
2022/06/02 11:58:32;;;;;;;3.40;1.27;;;;;;;;;;4936770;28;20058;-78
2022/06/02 12:01:33;;;;;;;4.50;1.20;;;;;;;;;;4936330;29;20615;-78
2022/06/02 12:04:20;;;;;;;1.67;1.10;;;;;;;;;;4952866;28;20462;-78
2022/06/02 12:07:16;;;;;;;2.42;1.10;;;;;;;;;;4952789;28;20039;-78
2022/06/02 12:10:20;;;;;;;3.85;1.55;;;;;;;;;;4936475;28;20039;-78
2022/06/02 12:13:06;;;;;;;1.98;0.75;;;;;;;;;;4929261;29;20035;-78
2022/06/02 12:15:55;;;;;;;2.38;0.93;;;;;;;;;;5019941;28;20031;-78
2022/06/02 12:18:35;;;;;;;2.85;1.40;;;;;;;;;;4952109;28;20028;-79
2022/06/02 12:21:23;;;;;;;7.70;1.30;;;;;;;;;;4952025;28;20047;-78
2022/06/02 12:24:27;;;;;;;11.05;1.45;;;;;;;;;;5020574;28;20047;-79
2022/06/02 12:27:04;;;;;;;4.95;1.25;;;;;;;;;;4985117;28;20465;-79
2022/06/02 12:29:48;;;;;;;7.65;1.20;;;;;;;;;;5034664;28;20052;-79
2022/06/02 12:32:53;;;;;;;3.38;1.23;;;;;;;;;;5015568;28;20400;-79
2022/06/02 12:35:35;;;;;;;3.97;1.50;;;;;;;;;;4953599;28;20084;-78
2022/06/02 12:38:38;;;;;;;4.43;1.48;;;;;;;;;;4951345;28;20066;-78
2022/06/02 12:41:27;;;;;;;2.40;1.30;;;;;;;;;;4921631;28;20039;-78
2022/06/02 12:44:11;;;;;;;3.22;1.10;;;;;;;;;;4952461;28;20043;-78
2022/06/02 12:46:40;;;;;;;4.28;1.55;;;;;;;;;;5019602;28;20036;-78
2022/06/02 12:49:35;;;;;;;5.32;1.33;;;;;;;;;;4953148;28;20047;-78
2022/06/02 12:52:10;;;;;;;4.60;1.15;;;;;;;;;;4935866;28;20035;-78
2022/06/02 12:54:50;;;;;;;3.25;1.60;;;;;;;;;;4952963;28;20542;-78
2022/06/02 12:57:43;;;;;;;5.05;1.40;;;;;;;;;;4951450;28;20134;-78
2022/06/02 13:00:21;;;;;;;2.00;1.20;;;;;;;;;;5018309;28;20055;-78
2022/06/02 13:02:46;;;;;;;5.40;1.65;;;;;;;;;;4948690;28;20047;-78
2022/06/02 13:05:53;;;;;;;4.07;1.33;;;;;;;;;;4933747;28;20036;-78
2022/06/02 13:08:48;;;;;;;4.20;1.38;;;;;;;;;;4933519;28;20587;-77
2022/06/02 13:11:39;;;;;;;3.70;1.50;;;;;;;;;;4983296;28;20078;-77
2022/06/02 13:14:17;;;;;;;4.35;1.67;;;;;;;;;;4933719;29;20088;-78
2022/06/02 13:17:09;;;;;;;4.60;1.50;;;;;;;;;;4931729;28;20119;-78
2022/06/02 13:19:46;;;;;;;3.63;1.30;;;;;;;;;;4948563;28;20275;-77
2022/06/02 13:22:45;;;;;;;3.05;1.33;;;;;;;;;;4947406;28;20042;-78
2022/06/02 13:25:23;;;;;;;3.25;1.23;;;;;;;;;;4946138;28;20119;-78
2022/06/02 13:27:54;;;;;;;3.95;1.13;;;;;;;;;;5017421;28;20062;-78
2022/06/02 13:30:45;;;;;;;3.83;1.40;;;;;;;;;;5035540;28;20101;-78
2022/06/02 13:33:29;;;;;;;4.40;1.35;;;;;;;;;;4958630;28;20035;-78
2022/06/02 13:36:10;;;;;;;3.10;0.50;;;;;;;;;;4971134;28;20050;-78
2022/06/02 13:38:50;;;;;;;3.97;1.00;;;;;;;;;;4954985;28;20049;-78
2022/06/02 13:41:39;;;;;;;3.00;1.33;;;;;;;;;;4954777;28;20496;-78
2022/06/02 13:44:21;;;;;;;2.33;1.02;;;;;;;;;;4972489;28;20481;-78
2022/06/02 13:46:55;;;;;;;3.47;0.93;;;;;;;;;;4965765;28;20031;-78
2022/06/02 13:49:45;;;;;;;2.47;0.93;;;;;;;;;;4952389;28;20046;-78
2022/06/02 13:52:29;;;;;;;2.50;0.80;;;;;;;;;;4934831;28;20050;-78
2022/06/02 13:58:42;;;;;;;2.38;0.73;;;;;;;;;;4918948;29;20058;-79
2022/06/02 14:01:25;;;;;;;2.55;0.90;;;;;;;;;;4952007;28;20043;-79
2022/06/02 14:04:18;;;;;;;3.58;1.20;;;;;;;;;;4951163;29;20156;-79
2022/06/02 14:06:55;;;;;;;2.42;0.95;;;;;;;;;;4952089;28;20111;-78
2022/06/02 14:09:34;;;;;;;6.72;1.60;;;;;;;;;;4935157;29;20035;-79
2022/06/02 14:12:09;;;;;;;3.05;0.90;;;;;;;;;;4933381;29;20070;-79
2022/06/02 14:14:54;;;;;;;4.05;0.88;;;;;;;;;;5018015;28;20032;-78
2022/06/02 14:17:22;;;;;;;3.17;1.30;;;;;;;;;;4950585;28;20039;-78
2022/06/02 14:20:17;;;;;;;6.18;1.50;;;;;;;;;;4951854;29;20039;-79
2022/06/02 14:22:58;;;;;;;4.45;1.10;;;;;;;;;;4910329;29;20047;-78
2022/06/02 14:25:45;;;;;;;3.22;1.35;;;;;;;;;;4950940;28;20584;-78
2022/06/02 14:28:35;;;;;;;6.57;1.30;;;;;;;;;;5014724;28;20105;-78
2022/06/02 14:31:09;;;;;;;4.28;1.52;;;;;;;;;;4915860;28;20066;-78
2022/06/02 14:33:37;;;;;;;7.88;1.65;;;;;;;;;;4925007;28;20128;-78
2022/06/02 14:36:11;;;;;;;4.43;1.30;;;;;;;;;;5017777;28;20137;-78
2022/06/02 14:38:45;;;;;;;2.88;1.20;;;;;;;;;;4951878;28;20066;-79
2022/06/02 14:41:10;;;;;;;6.50;1.77;;;;;;;;;;5017288;28;20036;-78
2022/06/02 14:43:42;;;;;;;2.95;1.20;;;;;;;;;;4951344;29;20375;-77
2022/06/02 14:46:25;;;;;;;4.60;0.98;;;;;;;;;;5017939;28;20039;-78
2022/06/02 14:49:28;;;;;;;2.00;0.95;;;;;;;;;;4949998;29;20069;-78
2022/06/02 14:51:59;;;;;;;;;;;;;;;;;;4951594;28;20035;-78
2022/06/02 14:54:42;;;;;;;1.67;0.60;;;;;;;;;;4950326;28;20021;-78
2022/06/02 14:57:13;;;;;;;2.72;0.90;;;;;;;;;;4950241;29;20073;-78
2022/06/02 14:59:57;;;;;;;3.17;1.02;;;;;;;;;;4950141;28;20504;-77
2022/06/02 15:02:36;;;;;;;3.05;0.88;;;;;;;;;;4945901;28;20046;-78
2022/06/02 15:05:20;;;;;;;3.80;0.80;;;;;;;;;;4934570;28;20035;-78
2022/06/02 15:08:04;;;;;;;2.78;1.00;;;;;;;;;;4950020;28;20051;-77
2022/06/02 15:10:46;;;;;;;2.05;0.65;;;;;;;;;;4933893;28;20449;-77
2022/06/02 15:13:40;;;;;;;3.22;0.60;;;;;;;;;;4934130;28;20501;-77
2022/06/02 15:16:17;;;;;;;2.65;0.68;;;;;;;;;;4935614;28;20058;-77
2022/06/02 15:18:56;;;;;;;2.15;0.88;;;;;;;;;;4949755;28;20070;-77
2022/06/02 15:21:49;;;;;;;2.70;1.05;;;;;;;;;;4934074;28;20031;-77
2022/06/02 15:24:24;;;;;;;1.75;0.70;;;;;;;;;;4949299;29;20181;-77
2022/06/02 15:27:14;;;;;;;3.20;0.80;;;;;;;;;;4942800;28;20039;-77
2022/06/02 15:29:57;;;;;;;1.67;0.73;;;;;;;;;;4951094;28;20039;-77
2022/06/02 15:32:39;;;;;;;1.63;0.73;;;;;;;;;;4933680;28;20127;-77
2022/06/02 15:35:19;;;;;;;1.30;0.70;;;;;;;;;;4933754;28;20054;-77
2022/06/02 15:38:22;;;;;;;2.20;0.65;;;;;;;;;;4950711;28;20032;-77
2022/06/02 15:41:19;;;;;;;1.92;0.85;;;;;;;;;;4927045;28;20043;-77
2022/06/02 15:44:23;;;;;;;1.85;0.50;;;;;;;;;;4949095;28;20077;-77
2022/06/02 15:47:04;;;;;;;1.40;0.82;;;;;;;;;;4930404;29;20048;-77
2022/06/02 15:49:46;;;;;;;1.25;0.55;;;;;;;;;;4933544;28;20035;-77
2022/06/02 15:52:30;;;;;;;1.90;0.88;;;;;;;;;;4933835;28;20039;-77
2022/06/02 15:55:23;;;;;;;1.92;0.75;;;;;;;;;;4933327;29;20039;-77
2022/06/02 15:58:12;;;;;;;4.35;0.90;;;;;;;;;;4933366;29;20505;-77
2022/06/02 16:00:52;;;;;;;2.38;0.82;;;;;;;;;;4902826;29;20047;-77
2022/06/02 16:03:41;;;;;;;3.10;0.90;;;;;;;;;;5016949;28;20036;-77
2022/06/02 16:06:25;;;;;;;1.63;0.52;;;;;;;;;;4950301;29;20039;-77
2022/06/02 16:12:11;;;;;;;2.00;0.60;;;;;;;;;;4950857;29;20051;-78
2022/06/02 16:15:17;;;;;;;1.92;0.57;;;;;;;;;;4949074;29;20106;-78
2022/06/02 16:18:02;;;;;;;2.97;0.90;;;;;;;;;;4914497;29;20052;-78
2022/06/02 16:20:56;;;;;;;1.70;0.70;;;;;;;;;;5016436;28;20043;-78
2022/06/02 16:23:47;;;;;;;1.08;0.57;;;;;;;;;;4921804;28;20050;-78
2022/06/02 16:26:30;;;;;;;2.72;0.60;;;;;;;;;;5000242;28;20032;-78
2022/06/02 16:29:14;;;;;;;2.13;0.93;;;;;;;;;;5016675;28;20063;-78
2022/06/02 16:31:51;;;;;;;1.33;0.80;;;;;;;;;;4949896;28;20071;-78
2022/06/02 16:34:22;;;;;;;1.95;0.80;;;;;;;;;;5021188;28;20066;-77
2022/06/02 16:37:02;;;;;;;3.70;1.70;;;;;;;;;;4935550;28;20066;-78
2022/06/02 16:39:56;;;;;;;4.25;2.38;;;;;;;;;;4952486;29;20043;-78